createdAt,value
2023-01-21T00:01:36.444Z,0.90
2023-01-21T00:06:38.983Z,0.75
2023-01-21T00:11:41.500Z,0.88
2023-01-21T00:16:44.177Z,1.12
2023-01-21T00:21:46.720Z,1.09
2023-01-21T00:26:49.156Z,1.25
2023-01-21T00:31:51.784Z,1.45
2023-01-21T00:36:56.539Z,1.62
2023-01-21T00:41:59.089Z,1.29
2023-01-21T00:47:01.843Z,1.15
2023-01-21T00:52:04.646Z,1.00
2023-01-21T00:57:07.063Z,1.10
2023-01-21T01:02:09.961Z,1.04
2023-01-21T01:07:12.460Z,0.81
2023-01-21T01:12:14.809Z,0.80
2023-01-21T01:17:17.237Z,0.80
2023-01-21T01:22:19.762Z,0.94
2023-01-21T01:27:22.531Z,1.13
2023-01-21T01:32:24.997Z,1.05
2023-01-21T01:37:27.449Z,1.04
2023-01-21T01:42:30.057Z,1.02
2023-01-21T01:47:42.510Z,0.50
2023-01-21T01:52:46.048Z,0.16
2023-01-21T01:57:52.865Z,-0.10
2023-01-21T02:03:15.162Z,0.63
2023-01-21T02:08:18.538Z,0.64
2023-01-21T02:13:21.125Z,0.49
2023-01-21T02:18:38.948Z,-0.05
2023-01-21T02:24:07.065Z,-0.16
2023-01-21T02:29:42.680Z,-0.08
2023-01-21T02:35:20.448Z,-0.41
2023-01-21T02:40:37.029Z,-0.48
2023-01-21T02:45:46.880Z,-1.05
2023-01-21T02:50:52.080Z,-1.21
2023-01-21T02:55:57.598Z,-0.82
2023-01-21T03:01:30.987Z,-1.14
2023-01-21T03:06:52.622Z,-0.67
2023-01-21T03:12:03.542Z,-0.37
2023-01-21T03:17:28.849Z,-1.19
2023-01-21T03:22:35.494Z,-1.59
2023-01-21T03:27:42.736Z,-1.60
2023-01-21T03:32:49.852Z,-1.56
2023-01-21T03:38:09.107Z,-1.58
2023-01-21T03:43:11.801Z,-1.55
2023-01-21T03:48:36.957Z,-1.74
2023-01-21T03:53:39.358Z,-1.91
2023-01-21T03:58:41.806Z,-1.99
2023-01-21T04:03:44.727Z,-1.77
2023-01-21T04:08:47.494Z,-1.53
2023-01-21T04:13:49.960Z,-1.41
2023-01-21T04:18:52.847Z,-1.37
2023-01-21T04:23:55.360Z,-1.52
2023-01-21T04:28:58.424Z,-1.75
2023-01-21T04:34:01.117Z,-1.43
2023-01-21T04:39:03.846Z,-1.48
2023-01-21T04:44:06.372Z,-1.31
2023-01-21T04:49:09.041Z,-1.79
2023-01-21T04:54:11.619Z,-2.02
2023-01-21T04:59:14.204Z,-2.16
2023-01-21T05:04:16.971Z,-1.95
2023-01-21T05:09:19.657Z,-1.87
2023-01-21T05:14:22.093Z,-2.07
2023-01-21T05:19:24.624Z,-1.71
2023-01-21T05:24:27.260Z,-1.69
2023-01-21T05:29:29.649Z,-1.74
2023-01-21T05:34:32.452Z,-1.43
2023-01-21T05:39:34.891Z,-1.77
2023-01-21T05:44:37.325Z,-1.55
2023-01-21T05:49:40.035Z,-1.32
2023-01-21T05:54:56.093Z,-1.61
2023-01-21T06:00:04.737Z,-1.71
2023-01-21T06:05:07.728Z,-1.21
2023-01-21T06:10:10.551Z,-0.90
2023-01-21T06:15:14.045Z,-0.23
2023-01-21T06:20:16.806Z,0.34
2023-01-21T06:25:19.442Z,0.45
2023-01-21T06:30:22.882Z,0.07
2023-01-21T06:35:25.388Z,0.19
2023-01-21T06:40:27.818Z,0.31
2023-01-21T06:45:30.352Z,0.68
2023-01-21T06:50:32.971Z,1.14
2023-01-21T06:55:35.387Z,1.25
2023-01-21T07:00:38.008Z,1.12
2023-01-21T07:05:40.610Z,1.28
2023-01-21T07:10:43.292Z,1.13
2023-01-21T07:15:45.928Z,1.18
2023-01-21T07:20:48.312Z,1.22
2023-01-21T07:25:51.021Z,1.23
2023-01-21T07:30:53.719Z,1.15
2023-01-21T07:35:56.463Z,1.19
2023-01-21T07:40:59.093Z,1.41
2023-01-21T07:46:01.990Z,1.49
2023-01-21T07:51:07.511Z,1.56
2023-01-21T07:56:10.323Z,1.38
2023-01-21T08:01:12.842Z,1.48
2023-01-21T08:06:16.559Z,1.22
2023-01-21T08:11:19.402Z,1.29
2023-01-21T08:16:21.892Z,1.67
2023-01-21T08:21:24.338Z,1.57
2023-01-21T08:26:27.001Z,1.69
2023-01-21T08:31:29.439Z,1.67
2023-01-21T08:36:32.135Z,1.80
2023-01-21T08:41:35.113Z,1.68
2023-01-21T08:46:37.544Z,1.50
2023-01-21T08:51:39.960Z,1.70
2023-01-21T08:56:42.362Z,1.44
2023-01-21T09:01:44.812Z,1.07
2023-01-21T09:06:47.240Z,0.65
2023-01-21T09:11:49.678Z,1.27
2023-01-21T09:16:52.191Z,1.59
2023-01-21T09:21:55.656Z,1.73
2023-01-21T09:26:58.079Z,2.08
2023-01-21T09:32:00.828Z,2.11
2023-01-21T09:37:05.217Z,2.41
2023-01-21T09:42:21.201Z,2.65
2023-01-21T09:47:32.306Z,2.65
2023-01-21T09:52:40.253Z,2.68
2023-01-21T09:57:48.909Z,2.90
2023-01-21T10:03:08.931Z,3.19
2023-01-21T10:08:37.012Z,3.32
2023-01-21T10:14:19.250Z,3.37
2023-01-21T10:19:33.435Z,2.97
2023-01-21T10:24:49.791Z,3.22
2023-01-21T10:30:20.483Z,3.25
2023-01-21T10:36:07.032Z,3.48
2023-01-21T10:41:27.662Z,3.86
2023-01-21T10:46:57.257Z,3.85
2023-01-21T10:52:18.825Z,3.62
2023-01-21T10:57:27.211Z,3.54
2023-01-21T11:02:34.276Z,3.96
2023-01-21T11:07:42.236Z,3.98
2023-01-21T11:12:44.681Z,4.28
2023-01-21T11:17:50.089Z,4.09
2023-01-21T11:22:52.844Z,3.94
2023-01-21T11:27:55.535Z,4.17
2023-01-21T11:33:19.510Z,4.17
2023-01-21T11:38:34.490Z,4.17
2023-01-21T11:43:48.828Z,4.26
2023-01-21T11:49:06.494Z,4.43
2023-01-21T11:54:22.038Z,4.27
2023-01-21T11:59:45.728Z,4.42
2023-01-21T12:05:16.324Z,4.59
2023-01-21T12:10:37.113Z,4.47
2023-01-21T12:15:57.093Z,4.77
2023-01-21T12:21:10.043Z,4.29
2023-01-21T12:26:42.494Z,4.35
2023-01-21T12:31:54.477Z,4.41
2023-01-21T12:37:16.129Z,4.70
2023-01-21T12:42:29.483Z,4.57
2023-01-21T12:47:39.960Z,4.64
2023-01-21T12:53:04.074Z,4.69
2023-01-21T12:58:19.496Z,4.48
2023-01-21T13:03:33.114Z,4.16
2023-01-21T13:09:01.099Z,3.85
2023-01-21T13:14:09.700Z,3.98
2023-01-21T13:19:16.362Z,4.07
2023-01-21T13:24:34.273Z,4.26
2023-01-21T13:29:45.500Z,4.23
2023-01-21T13:35:23.184Z,4.11
2023-01-21T13:41:00.619Z,4.05
2023-01-21T13:46:21.826Z,3.72
2023-01-21T13:51:42.295Z,3.74
2023-01-21T13:57:13.640Z,3.85
2023-01-21T14:02:49.368Z,3.84
2023-01-21T14:08:08.409Z,3.94
2023-01-21T14:13:35.486Z,3.95
2023-01-21T14:19:04.637Z,4.05
2023-01-21T14:24:36.993Z,4.02
2023-01-21T14:30:06.128Z,4.12
2023-01-21T14:35:27.638Z,4.07
2023-01-21T14:40:32.432Z,4.16
2023-01-21T14:46:22.454Z,4.21
2023-01-21T14:51:27.224Z,4.04
2023-01-21T14:56:36.708Z,3.97
2023-01-21T15:01:45.987Z,4.15
2023-01-21T15:06:53.223Z,4.25
2023-01-21T15:12:07.096Z,4.30
2023-01-21T15:17:47.240Z,4.24
2023-01-21T15:23:24.150Z,4.06
2023-01-21T15:28:39.979Z,4.03
2023-01-21T15:33:48.865Z,4.08
2023-01-21T15:39:00.683Z,4.21
2023-01-21T15:44:32.721Z,4.23
2023-01-21T15:49:57.059Z,4.08
2023-01-21T15:55:27.069Z,4.16
2023-01-21T16:00:44.833Z,4.17
2023-01-21T16:06:11.456Z,4.14
2023-01-21T16:11:28.430Z,4.06
2023-01-21T16:17:18.242Z,4.21
2023-01-21T16:22:28.130Z,4.29
2023-01-21T16:27:32.444Z,3.96
2023-01-21T16:32:37.140Z,4.01
2023-01-21T16:37:39.652Z,4.22
2023-01-21T16:42:42.705Z,4.21
2023-01-21T16:47:52.582Z,4.20
2023-01-21T16:52:57.585Z,4.35
2023-01-21T16:58:00.534Z,4.30
2023-01-21T17:03:04.846Z,4.33
2023-01-21T17:08:12.169Z,4.26
2023-01-21T17:13:16.166Z,4.26
2023-01-21T17:18:23.092Z,4.27
2023-01-21T17:23:31.391Z,4.19
2023-01-21T17:28:47.506Z,4.24
2023-01-21T17:34:27.447Z,4.24
2023-01-21T17:39:48.390Z,4.21
2023-01-21T17:44:54.745Z,4.17
2023-01-21T17:50:17.483Z,4.23
2023-01-21T17:55:20.087Z,4.06
2023-01-21T18:00:43.273Z,4.29
2023-01-21T18:05:46.276Z,4.04
2023-01-21T18:10:48.787Z,4.00
2023-01-21T18:15:51.995Z,4.02
2023-01-21T18:20:54.829Z,4.15
2023-01-21T18:25:59.670Z,4.37
2023-01-21T18:31:02.776Z,4.40
2023-01-21T18:36:05.744Z,4.29
2023-01-21T18:41:11.689Z,4.34
2023-01-21T18:46:16.307Z,4.28
2023-01-21T18:51:18.882Z,4.24
2023-01-21T18:56:21.810Z,4.36
2023-01-21T19:01:24.433Z,4.32
2023-01-21T19:06:27.095Z,4.32
2023-01-21T19:11:29.538Z,4.34
2023-01-21T19:16:32.107Z,4.09
2023-01-21T19:21:34.967Z,4.04
2023-01-21T19:26:38.371Z,4.19
2023-01-21T19:31:40.921Z,4.20
2023-01-21T19:36:43.501Z,4.25
2023-01-21T19:41:45.916Z,4.08
2023-01-21T19:46:48.580Z,4.15
2023-01-21T19:51:51.052Z,4.19
2023-01-21T19:56:53.768Z,4.17
2023-01-21T20:01:56.497Z,3.97
2023-01-21T20:06:59.122Z,4.15
2023-01-21T20:12:03.514Z,4.34
2023-01-21T20:17:12.864Z,4.26
2023-01-21T20:22:15.326Z,4.34
2023-01-21T20:27:17.905Z,4.15
2023-01-21T20:32:20.896Z,4.20
2023-01-21T20:37:23.372Z,4.04
2023-01-21T20:42:27.341Z,4.01
2023-01-21T20:47:38.575Z,4.01
2023-01-21T20:52:46.620Z,4.22
2023-01-21T20:57:49.014Z,4.03
2023-01-21T21:02:51.575Z,4.10
2023-01-21T21:07:55.223Z,4.01
2023-01-21T21:12:58.858Z,4.11
2023-01-21T21:18:03.396Z,4.04
2023-01-21T21:23:07.560Z,3.96
2023-01-21T21:28:18.202Z,4.08
2023-01-21T21:33:22.202Z,3.97
2023-01-21T21:38:26.147Z,4.21
2023-01-21T21:43:38.875Z,4.07
2023-01-21T21:48:42.577Z,4.01
2023-01-21T21:53:46.305Z,4.05
2023-01-21T21:58:50.321Z,3.92
2023-01-21T22:03:53.408Z,3.90
2023-01-21T22:08:58.785Z,3.82
2023-01-21T22:14:04.723Z,3.64
2023-01-21T22:19:07.224Z,3.78
2023-01-21T22:24:10.708Z,3.89
2023-01-21T22:29:13.245Z,3.90
2023-01-21T22:34:15.705Z,3.97
2023-01-21T22:39:18.206Z,3.87
2023-01-21T22:44:20.905Z,3.87
2023-01-21T22:49:23.345Z,3.81
2023-01-21T22:54:25.817Z,3.54
2023-01-21T22:59:28.216Z,3.74
2023-01-21T23:04:30.639Z,3.74
2023-01-21T23:09:33.252Z,3.70
2023-01-21T23:14:35.905Z,3.54
2023-01-21T23:19:38.714Z,3.71
2023-01-21T23:24:41.191Z,3.86
2023-01-21T23:29:43.710Z,3.75
2023-01-21T23:34:46.268Z,3.73
2023-01-21T23:39:49.025Z,3.85
2023-01-21T23:44:51.839Z,3.78
2023-01-21T23:49:54.536Z,3.82
2023-01-21T23:54:57.159Z,3.64
2023-01-21T23:59:59.604Z,3.54
